createdAt,value
2023-01-04T00:01:54.324Z,101656.66
2023-01-04T00:04:20.918Z,101651.50
2023-01-04T00:06:47.387Z,101653.88
2023-01-04T00:09:13.883Z,101642.25
2023-01-04T00:11:40.371Z,101637.84
2023-01-04T00:14:06.829Z,101627.63
2023-01-04T00:16:33.337Z,101626.09
2023-01-04T00:18:59.869Z,101620.19
2023-01-04T00:21:31.095Z,101604.47
2023-01-04T00:24:00.742Z,101609.31
2023-01-04T00:26:33.296Z,101598.47
2023-01-04T00:29:02.898Z,101583.44
2023-01-04T00:31:30.049Z,101583.28
2023-01-04T00:33:58.109Z,101579.63
2023-01-04T00:36:24.928Z,101582.34
2023-01-04T00:39:10.428Z,101565.94
2023-01-04T00:42:02.139Z,101567.72
2023-01-04T00:44:24.473Z,101554.22
2023-01-04T00:46:51.044Z,101552.81
2023-01-04T00:49:17.527Z,101539.66
2023-01-04T00:51:44.018Z,101531.34
2023-01-04T00:54:14.222Z,101511.75
2023-01-04T00:56:40.755Z,101508.94
2023-01-04T00:59:07.291Z,101507.41
2023-01-04T01:01:34.717Z,101496.84
2023-01-04T01:04:04.111Z,101482.28
2023-01-04T01:06:31.678Z,101475.63
2023-01-04T01:08:58.998Z,101475.69
2023-01-04T01:11:25.874Z,101469.91
2023-01-04T01:13:52.364Z,101461.91
2023-01-04T01:16:44.475Z,101465.56
2023-01-04T01:19:07.875Z,101475.38
2023-01-04T01:21:34.489Z,101462.63
2023-01-04T01:24:00.973Z,101456.47
2023-01-04T01:26:27.591Z,101450.03
2023-01-04T01:28:54.049Z,101452.69
2023-01-04T01:31:23.545Z,101442.34
2023-01-04T01:33:51.190Z,101442.09
2023-01-04T01:36:19.036Z,101434.03
2023-01-04T01:38:46.063Z,101427.91
2023-01-04T01:41:20.585Z,101416.13
2023-01-04T01:43:53.566Z,101421.97
2023-01-04T01:46:24.351Z,101412.75
2023-01-04T01:48:52.699Z,101408.50
2023-01-04T01:51:19.383Z,101400.03
2023-01-04T01:53:49.905Z,101395.91
2023-01-04T01:56:17.822Z,101393.44
2023-01-04T01:58:46.925Z,101380.66
2023-01-04T02:01:13.538Z,101364.66
2023-01-04T02:03:42.201Z,101358.41
2023-01-04T02:06:11.646Z,101350.84
2023-01-04T02:08:39.377Z,101347.72
2023-01-04T02:11:06.202Z,101339.47
2023-01-04T02:13:53.171Z,101331.84
2023-01-04T02:16:27.084Z,101329.47
2023-01-04T02:19:04.081Z,101315.16
2023-01-04T02:22:01.158Z,101303.66
2023-01-04T02:24:43.318Z,101305.78
2023-01-04T02:27:33.630Z,101290.75
2023-01-04T02:30:39.070Z,101286.22
2023-01-04T02:33:28.046Z,101280.41
2023-01-04T02:36:06.577Z,101275.09
2023-01-04T02:39:01.954Z,101265.81
2023-01-04T02:41:34.640Z,101252.00
2023-01-04T02:44:29.916Z,101234.78
2023-01-04T02:47:48.323Z,101236.78
2023-01-04T02:50:32.028Z,101217.06
2023-01-04T02:53:06.401Z,101221.00
2023-01-04T02:55:48.271Z,101210.72
2023-01-04T02:59:16.813Z,101192.47
2023-01-04T03:02:14.363Z,101184.78
2023-01-04T03:05:05.635Z,101179.19
2023-01-04T03:07:47.116Z,101165.31
2023-01-04T03:10:36.162Z,101151.69
2023-01-04T03:13:10.740Z,101146.34
2023-01-04T03:15:38.894Z,101154.78
2023-01-04T03:18:18.364Z,101136.94
2023-01-04T03:20:46.952Z,101129.69
2023-01-04T03:23:34.777Z,101122.81
2023-01-04T03:26:27.538Z,101117.34
2023-01-04T03:29:14.802Z,101111.84
2023-01-04T03:32:03.832Z,101096.13
2023-01-04T03:34:48.970Z,101094.88
2023-01-04T03:37:35.270Z,101080.41
2023-01-04T03:40:32.034Z,101061.03
2023-01-04T03:43:36.467Z,101064.19
2023-01-04T03:46:47.831Z,101059.00
2023-01-04T03:49:25.533Z,101059.97
2023-01-04T03:51:54.419Z,101042.69
2023-01-04T03:54:25.164Z,101033.97
2023-01-04T03:56:52.379Z,101033.53
2023-01-04T03:59:18.876Z,101024.34
2023-01-04T04:01:45.533Z,101016.88
2023-01-04T04:04:30.711Z,101003.31
2023-01-04T04:07:16.019Z,101004.13
2023-01-04T04:09:42.637Z,100995.97
2023-01-04T04:12:09.198Z,100979.09
2023-01-04T04:14:35.875Z,100983.19
2023-01-04T04:17:02.410Z,100984.25
2023-01-04T04:19:28.918Z,100974.78
2023-01-04T04:21:55.422Z,100969.09
2023-01-04T04:24:24.628Z,100956.72
2023-01-04T04:26:52.039Z,100955.06
2023-01-04T04:29:18.485Z,100950.81
2023-01-04T04:31:45.033Z,100933.94
2023-01-04T04:34:11.596Z,100920.91
2023-01-04T04:36:38.245Z,100923.25
2023-01-04T04:39:04.898Z,100910.41
2023-01-04T04:41:41.456Z,100913.84
2023-01-04T04:44:19.156Z,100913.41
2023-01-04T04:46:46.758Z,100904.84
2023-01-04T04:49:14.075Z,100903.38
2023-01-04T04:51:41.657Z,100897.50
2023-01-04T04:54:10.164Z,100881.44
2023-01-04T04:56:37.223Z,100875.31
2023-01-04T04:59:05.037Z,100863.66
2023-01-04T05:01:31.831Z,100853.50
2023-01-04T05:03:58.395Z,100847.09
2023-01-04T05:06:24.960Z,100830.75
2023-01-04T05:08:51.481Z,100840.91
2023-01-04T05:11:38.039Z,100839.94
2023-01-04T05:14:04.526Z,100838.63
2023-01-04T05:16:31.052Z,100826.59
2023-01-04T05:18:57.645Z,100816.63
2023-01-04T05:21:24.107Z,100805.31
2023-01-04T05:23:50.551Z,100803.97
2023-01-04T05:26:17.091Z,100792.47
2023-01-04T05:28:46.992Z,100782.22
2023-01-04T05:31:16.448Z,100789.13
2023-01-04T05:33:42.967Z,100774.28
2023-01-04T05:36:09.436Z,100754.88
2023-01-04T05:38:35.986Z,100761.84
2023-01-04T05:41:02.429Z,100738.78
2023-01-04T05:43:28.874Z,100742.75
2023-01-04T05:45:56.796Z,100737.81
2023-01-04T05:48:24.438Z,100726.16
2023-01-04T05:50:53.233Z,100727.22
2023-01-04T05:53:19.821Z,100713.69
2023-01-04T05:55:48.752Z,100710.19
2023-01-04T05:58:15.812Z,100713.16
2023-01-04T06:00:42.322Z,100689.63
2023-01-04T06:03:08.954Z,100690.47
2023-01-04T06:05:35.520Z,100677.63
2023-01-04T06:08:01.991Z,100677.03
2023-01-04T06:10:28.455Z,100670.66
2023-01-04T06:12:54.948Z,100676.78
2023-01-04T06:15:21.566Z,100667.81
2023-01-04T06:17:48.022Z,100661.00
2023-01-04T06:20:14.458Z,100661.94
2023-01-04T06:22:41.572Z,100633.84
2023-01-04T06:25:09.106Z,100651.13
2023-01-04T06:27:35.738Z,100641.25
2023-01-04T06:30:02.252Z,100634.91
2023-01-04T06:32:28.758Z,100628.63
2023-01-04T06:34:55.237Z,100623.91
2023-01-04T06:37:21.872Z,100612.56
2023-01-04T06:39:48.320Z,100607.75
2023-01-04T06:42:33.517Z,100608.97
2023-01-04T06:45:00.024Z,100584.91
2023-01-04T06:47:26.531Z,100594.41
2023-01-04T06:49:53.055Z,100578.38
2023-01-04T06:52:19.694Z,100573.34
2023-01-04T06:54:46.260Z,100566.22
2023-01-04T06:57:13.535Z,100565.13
2023-01-04T06:59:40.002Z,100558.00
2023-01-04T07:02:06.803Z,100553.72
2023-01-04T07:04:33.412Z,100550.28
2023-01-04T07:06:59.939Z,100540.50
2023-01-04T07:09:26.430Z,100537.75
2023-01-04T07:11:52.967Z,100535.84
2023-01-04T07:14:19.487Z,100531.75
2023-01-04T07:16:46.051Z,100525.31
2023-01-04T07:19:12.632Z,100530.72
2023-01-04T07:21:39.104Z,100535.53
2023-01-04T07:24:05.745Z,100523.84
2023-01-04T07:26:32.307Z,100524.59
2023-01-04T07:29:17.377Z,100508.41
2023-01-04T07:31:48.762Z,100510.81
2023-01-04T07:34:17.027Z,100503.22
2023-01-04T07:36:43.608Z,100502.00
2023-01-04T07:39:12.561Z,100494.34
2023-01-04T07:41:40.607Z,100499.53
2023-01-04T07:44:08.450Z,100490.03
2023-01-04T07:46:35.891Z,100490.22
2023-01-04T07:49:02.609Z,100490.56
2023-01-04T07:51:30.668Z,100491.25
2023-01-04T07:53:57.647Z,100483.63
2023-01-04T07:56:24.069Z,100486.22
2023-01-04T07:58:50.928Z,100489.13
2023-01-04T08:01:19.080Z,100488.47
2023-01-04T08:03:46.423Z,100483.03
2023-01-04T08:06:14.405Z,100479.56
2023-01-04T08:08:41.573Z,100479.69
2023-01-04T08:11:11.118Z,100481.88
2023-01-04T08:13:37.699Z,100477.88
2023-01-04T08:16:04.671Z,100475.22
2023-01-04T08:18:31.193Z,100493.22
2023-01-04T08:21:06.464Z,100495.19
2023-01-04T08:23:33.622Z,100491.53
2023-01-04T08:26:11.367Z,100487.78
2023-01-04T08:28:38.119Z,100487.84
2023-01-04T08:31:11.074Z,100489.53
2023-01-04T08:33:38.669Z,100482.13
2023-01-04T08:36:08.327Z,100477.88
2023-01-04T08:41:47.340Z,100469.06
2023-01-04T08:44:07.926Z,100464.94
2023-01-04T08:46:34.429Z,100453.44
2023-01-04T08:49:00.902Z,100441.13
2023-01-04T08:51:27.387Z,100427.66
2023-01-04T08:53:53.818Z,100438.00
2023-01-04T08:56:20.283Z,100438.16
2023-01-04T08:58:46.708Z,100434.75
2023-01-04T09:01:13.298Z,100433.75
2023-01-04T09:03:39.849Z,100433.13
2023-01-04T09:06:08.663Z,100430.28
2023-01-04T09:08:36.256Z,100430.44
2023-01-04T09:11:06.409Z,100416.50
2023-01-04T09:13:33.989Z,100418.31
2023-01-04T09:16:07.044Z,100423.34
2023-01-04T09:18:34.162Z,100422.63
2023-01-04T09:21:05.992Z,100428.94
2023-01-04T09:23:34.023Z,100420.84
2023-01-04T09:26:09.718Z,100418.38
2023-01-04T09:28:36.728Z,100413.03
2023-01-04T09:31:24.151Z,100410.69
2023-01-04T09:36:37.308Z,100412.41
2023-01-04T09:39:03.961Z,100408.19
2023-01-04T09:41:37.756Z,100411.41
2023-01-04T09:44:19.779Z,100407.22
2023-01-04T09:47:04.164Z,100408.16
2023-01-04T09:49:39.398Z,100403.03
2023-01-04T09:52:20.529Z,100396.09
2023-01-04T09:54:58.979Z,100389.19
2023-01-04T09:57:33.102Z,100398.56
2023-01-04T10:00:08.691Z,100393.59
2023-01-04T10:03:12.668Z,100383.03
2023-01-04T10:05:40.301Z,100387.41
2023-01-04T10:08:15.413Z,100383.19
2023-01-04T10:11:08.058Z,100380.69
2023-01-04T10:13:47.073Z,100374.41
2023-01-04T10:16:15.135Z,100366.56
2023-01-04T10:19:28.670Z,100374.47
2023-01-04T10:21:49.811Z,100363.97
2023-01-04T10:24:25.683Z,100370.88
2023-01-04T10:26:59.482Z,100364.13
2023-01-04T10:29:57.064Z,100364.94
2023-01-04T10:32:39.620Z,100370.94
2023-01-04T10:35:21.780Z,100364.81
2023-01-04T10:37:58.760Z,100368.38
2023-01-04T10:40:26.553Z,100351.16
2023-01-04T10:43:02.831Z,100359.81
2023-01-04T10:45:46.408Z,100351.94
2023-01-04T10:48:20.932Z,100338.09
2023-01-04T10:50:59.805Z,100331.97
2023-01-04T10:53:41.450Z,100338.06
2023-01-04T10:56:23.982Z,100338.09
2023-01-04T10:59:04.404Z,100321.41
2023-01-04T11:01:59.532Z,100318.91
2023-01-04T11:04:32.802Z,100318.94
2023-01-04T11:07:06.632Z,100323.16
2023-01-04T11:09:35.482Z,100313.69
2023-01-04T11:12:02.560Z,100314.59
2023-01-04T11:14:35.135Z,100301.50
2023-01-04T11:17:07.445Z,100301.50
2023-01-04T11:19:34.534Z,100305.91
2023-01-04T11:22:20.856Z,100288.47
2023-01-04T11:25:33.080Z,100306.78
2023-01-04T11:27:48.424Z,100296.25
2023-01-04T11:30:18.095Z,100290.22
2023-01-04T11:32:51.475Z,100287.59
2023-01-04T11:35:42.225Z,100288.47
2023-01-04T11:38:17.357Z,100282.38
2023-01-04T11:41:06.234Z,100284.13
2023-01-04T11:43:39.633Z,100275.41
2023-01-04T11:46:24.301Z,100258.91
2023-01-04T11:48:52.149Z,100271.09
2023-01-04T11:51:28.674Z,100277.19
2023-01-04T11:54:02.252Z,100259.78
2023-01-04T11:56:30.893Z,100263.22
2023-01-04T11:59:24.877Z,100264.13
2023-01-04T12:01:53.141Z,100257.13
2023-01-04T12:04:25.102Z,100260.63
2023-01-04T12:07:07.732Z,100247.59
2023-01-04T12:09:34.286Z,100245.84
2023-01-04T12:12:01.442Z,100241.50
2023-01-04T12:14:32.495Z,100253.69
2023-01-04T12:17:17.577Z,100245.81
2023-01-04T12:19:44.780Z,100245.78
2023-01-04T12:22:23.344Z,100236.25
2023-01-04T12:24:53.936Z,100238.84
2023-01-04T12:27:21.863Z,100231.00
2023-01-04T12:29:48.281Z,100228.38
2023-01-04T12:32:15.292Z,100243.22
2023-01-04T12:34:44.094Z,100240.63
2023-01-04T12:37:12.215Z,100251.06
2023-01-04T12:39:44.281Z,100257.09
2023-01-04T12:42:21.578Z,100250.19
2023-01-04T12:44:51.716Z,100259.75
2023-01-04T12:47:36.931Z,100255.34
2023-01-04T12:50:13.554Z,100247.56
2023-01-04T12:55:43.852Z,100261.47
2023-01-04T12:58:49.867Z,100257.13
2023-01-04T13:01:28.502Z,100252.66
2023-01-04T13:04:04.694Z,100249.31
2023-01-04T13:06:35.938Z,100251.03
2023-01-04T13:09:02.535Z,100253.56
2023-01-04T13:11:48.282Z,100255.34
2023-01-04T13:14:21.742Z,100242.19
2023-01-04T13:17:06.586Z,100246.50
2023-01-04T13:19:33.105Z,100236.13
2023-01-04T13:21:59.773Z,100231.88
2023-01-04T13:24:36.888Z,100243.09
2023-01-04T13:27:10.271Z,100237.81
2023-01-04T13:29:36.853Z,100223.84
2023-01-04T13:32:04.227Z,100223.00
2023-01-04T13:34:52.243Z,100227.44
2023-01-04T13:37:27.414Z,100210.91
2023-01-04T13:40:15.553Z,100224.03
2023-01-04T13:42:43.534Z,100209.16
2023-01-04T13:45:51.538Z,100202.91
2023-01-04T13:48:21.325Z,100202.03
2023-01-04T13:51:05.785Z,100202.13
2023-01-04T13:53:32.869Z,100197.06
2023-01-04T13:56:03.358Z,100196.88
2023-01-04T13:58:31.851Z,100202.19
2023-01-04T14:01:14.562Z,100203.84
2023-01-04T14:03:51.506Z,100191.72
2023-01-04T14:06:47.475Z,100189.94
2023-01-04T14:09:17.188Z,100187.28
2023-01-04T14:12:09.104Z,100183.06
2023-01-04T14:14:46.897Z,100171.72
2023-01-04T14:17:21.987Z,100169.06
2023-01-04T14:19:54.546Z,100164.53
2023-01-04T14:22:21.038Z,100182.19
2023-01-04T14:27:45.459Z,100163.00
2023-01-04T14:30:17.915Z,100147.28
2023-01-04T14:32:59.138Z,100166.63
2023-01-04T14:35:27.326Z,100155.25
2023-01-04T14:37:54.431Z,100146.41
2023-01-04T14:40:27.123Z,100149.94
2023-01-04T14:42:54.208Z,100142.88
2023-01-04T14:45:20.675Z,100130.63
2023-01-04T14:47:47.214Z,100130.63
2023-01-04T14:50:14.386Z,100131.66
2023-01-04T14:52:40.909Z,100130.88
2023-01-04T14:55:07.762Z,100146.50
2023-01-04T14:57:38.125Z,100160.44
2023-01-04T15:00:05.003Z,100142.19
2023-01-04T15:02:33.751Z,100140.41
2023-01-04T15:05:00.512Z,100155.34
2023-01-04T15:07:36.104Z,100147.50
2023-01-04T15:10:11.058Z,100152.75
2023-01-04T15:12:37.631Z,100151.88
2023-01-04T15:15:04.518Z,100150.06
2023-01-04T15:17:31.106Z,100140.44
2023-01-04T15:19:57.588Z,100152.75
2023-01-04T15:22:24.035Z,100143.97
2023-01-04T15:24:50.643Z,100138.81
2023-01-04T15:27:17.090Z,100144.06
2023-01-04T15:29:43.550Z,100149.25
2023-01-04T15:32:10.050Z,100158.84
2023-01-04T15:34:39.587Z,100149.19
2023-01-04T15:37:10.004Z,100146.63
2023-01-04T15:39:36.493Z,100151.00
2023-01-04T15:42:21.608Z,100149.25
2023-01-04T15:44:48.087Z,100146.66
2023-01-04T15:47:14.606Z,100154.50
2023-01-04T15:49:41.092Z,100150.97
2023-01-04T15:52:07.538Z,100136.22
2023-01-04T15:54:34.028Z,100144.91
2023-01-04T15:57:00.479Z,100145.75
2023-01-04T15:59:27.013Z,100141.47
2023-01-04T16:01:53.620Z,100140.56
2023-01-04T16:04:20.194Z,100143.13
2023-01-04T16:06:46.647Z,100131.88
2023-01-04T16:09:13.119Z,100128.41
2023-01-04T16:12:02.487Z,100136.22
2023-01-04T16:14:29.022Z,100131.00
2023-01-04T16:16:56.376Z,100144.06
2023-01-04T16:19:22.874Z,100138.81
2023-01-04T16:21:49.303Z,100144.97
2023-01-04T16:24:44.771Z,100139.75
2023-01-04T16:27:02.220Z,100130.97
2023-01-04T16:29:28.692Z,100136.22
2023-01-04T16:31:55.226Z,100118.84
2023-01-04T16:34:21.739Z,100133.59
2023-01-04T16:36:51.215Z,100127.47
2023-01-04T16:39:17.748Z,100124.88
2023-01-04T16:41:44.308Z,100124.88
2023-01-04T16:44:13.419Z,100118.84
2023-01-04T16:46:40.546Z,100121.44
2023-01-04T16:49:12.838Z,100113.59
2023-01-04T16:51:40.534Z,100127.50
2023-01-04T16:54:09.771Z,100137.06
2023-01-04T16:56:37.216Z,100139.72
2023-01-04T16:59:03.985Z,100138.84
2023-01-04T17:01:33.042Z,100135.34
2023-01-04T17:04:01.851Z,100130.16
2023-01-04T17:06:30.218Z,100136.22
2023-01-04T17:08:57.654Z,100147.50
2023-01-04T17:14:13.541Z,100137.91
2023-01-04T17:16:41.039Z,100144.94
2023-01-04T17:19:07.568Z,100147.50
2023-01-04T17:21:35.226Z,100136.19
2023-01-04T17:24:02.564Z,100147.53
2023-01-04T17:26:30.692Z,100151.88
2023-01-04T17:28:58.429Z,100136.22
2023-01-04T17:31:31.440Z,100136.22
2023-01-04T17:33:58.073Z,100134.47
2023-01-04T17:36:24.683Z,100138.81
2023-01-04T17:38:51.456Z,100132.75
2023-01-04T17:41:20.425Z,100142.31
2023-01-04T17:43:48.701Z,100143.19
2023-01-04T17:46:22.579Z,100143.19
2023-01-04T17:48:58.964Z,100124.91
2023-01-04T17:51:37.697Z,100155.38
2023-01-04T17:54:05.886Z,100131.00
2023-01-04T17:56:37.705Z,100137.09
2023-01-04T17:59:06.807Z,100145.75
2023-01-04T18:01:34.519Z,100141.44
2023-01-04T18:04:02.110Z,100148.38
2023-01-04T18:06:31.148Z,100127.50
2023-01-04T18:08:58.795Z,100131.84
2023-01-04T18:11:25.438Z,100117.94
2023-01-04T18:13:53.213Z,100118.88
2023-01-04T18:16:26.967Z,100130.13
2023-01-04T18:19:00.439Z,100131.81
2023-01-04T18:21:30.503Z,100116.22
2023-01-04T18:24:34.900Z,100111.88
2023-01-04T18:29:32.907Z,100131.00
2023-01-04T18:32:00.406Z,100123.16
2023-01-04T18:34:27.269Z,100121.44
2023-01-04T18:36:54.353Z,100125.78
2023-01-04T18:39:21.238Z,100132.72
2023-01-04T18:41:47.728Z,100117.94
2023-01-04T18:47:02.810Z,100110.97
2023-01-04T18:49:29.405Z,100110.13
2023-01-04T18:51:55.893Z,100102.31
2023-01-04T18:54:22.384Z,100112.75
2023-01-04T18:56:49.293Z,100107.53
2023-01-04T18:59:19.104Z,100111.88
2023-01-04T19:01:46.074Z,100115.28
2023-01-04T19:04:15.568Z,100107.50
2023-01-04T19:06:43.009Z,100111.88
2023-01-04T19:09:10.234Z,100104.91
2023-01-04T19:11:36.851Z,100105.81
2023-01-04T19:14:03.806Z,100119.66
2023-01-04T19:16:31.461Z,100117.97
2023-01-04T19:19:02.707Z,100105.81
2023-01-04T19:21:29.190Z,100111.88
2023-01-04T19:23:56.308Z,100110.91
2023-01-04T19:26:23.290Z,100120.56
2023-01-04T19:28:51.085Z,100117.91
2023-01-04T19:31:20.229Z,100113.63
2023-01-04T19:33:46.954Z,100113.59
2023-01-04T19:36:18.353Z,100114.47
2023-01-04T19:38:44.915Z,100104.03
2023-01-04T19:41:27.766Z,100095.31
2023-01-04T19:44:05.282Z,100097.06
2023-01-04T19:46:32.655Z,100088.38
2023-01-04T19:48:59.286Z,100083.19
2023-01-04T19:51:27.968Z,100091.00
2023-01-04T19:53:55.921Z,100098.81
2023-01-04T19:56:22.471Z,100100.56
2023-01-04T19:58:49.070Z,100081.44
2023-01-04T20:01:18.203Z,100096.22
2023-01-04T20:03:45.304Z,100094.50
2023-01-04T20:06:12.828Z,100090.97
2023-01-04T20:08:40.457Z,100093.63
2023-01-04T20:11:07.411Z,100065.78
2023-01-04T20:13:34.565Z,100084.91
2023-01-04T20:16:01.874Z,100094.50
2023-01-04T20:18:28.427Z,100094.44
2023-01-04T20:20:56.284Z,100083.19
2023-01-04T20:23:22.974Z,100082.34
2023-01-04T20:25:52.366Z,100089.28
2023-01-04T20:28:20.890Z,100090.84
2023-01-04T20:30:47.867Z,100093.59
2023-01-04T20:33:15.200Z,100080.56
2023-01-04T20:35:43.325Z,100090.16
2023-01-04T20:38:11.493Z,100083.16
2023-01-04T20:40:38.829Z,100085.78
2023-01-04T20:43:27.249Z,100085.81
2023-01-04T20:45:53.768Z,100085.81
2023-01-04T20:48:20.520Z,100083.19
2023-01-04T20:50:46.956Z,100094.44
2023-01-04T20:53:13.643Z,100093.59
2023-01-04T20:55:44.107Z,100084.03
2023-01-04T20:58:13.976Z,100087.50
2023-01-04T21:00:41.515Z,100082.31
2023-01-04T21:03:10.434Z,100091.84
2023-01-04T21:05:41.603Z,100088.34
2023-01-04T21:08:08.537Z,100089.25
2023-01-04T21:10:36.200Z,100088.41
2023-01-04T21:13:03.975Z,100079.66
2023-01-04T21:15:31.275Z,100097.94
2023-01-04T21:17:57.928Z,100103.13
2023-01-04T21:20:25.135Z,100091.88
2023-01-04T21:22:51.581Z,100104.88
2023-01-04T21:25:18.436Z,100087.44
2023-01-04T21:27:44.919Z,100089.16
2023-01-04T21:30:12.087Z,100080.56
2023-01-04T21:32:38.651Z,100097.84
2023-01-04T21:35:05.579Z,100090.94
2023-01-04T21:37:32.049Z,100095.31
2023-01-04T21:39:58.636Z,100090.13
2023-01-04T21:42:25.308Z,100104.81
2023-01-04T21:44:52.180Z,100094.47
2023-01-04T21:47:18.652Z,100091.84
2023-01-04T21:49:45.868Z,100080.50
2023-01-04T21:52:12.839Z,100086.66
2023-01-04T21:54:39.581Z,100103.97
2023-01-04T21:57:08.183Z,100082.31
2023-01-04T21:59:35.989Z,100106.53
2023-01-04T22:02:02.831Z,100092.69
2023-01-04T22:04:29.511Z,100094.31
2023-01-04T22:06:56.052Z,100091.00
2023-01-04T22:09:25.351Z,100097.81
2023-01-04T22:11:52.075Z,100091.72
2023-01-04T22:14:19.523Z,100094.34
2023-01-04T22:16:46.576Z,100091.88
2023-01-04T22:19:14.467Z,100101.41
2023-01-04T22:21:42.022Z,100089.25
2023-01-04T22:24:15.171Z,100103.94
2023-01-04T22:26:42.487Z,100102.19
2023-01-04T22:29:10.683Z,100115.28
2023-01-04T22:31:37.905Z,100102.22
2023-01-04T22:34:04.923Z,100112.63
2023-01-04T22:36:31.920Z,100089.84
2023-01-04T22:38:58.985Z,100104.75
2023-01-04T22:41:28.306Z,100112.53
2023-01-04T22:43:57.421Z,100112.66
2023-01-04T22:46:25.231Z,100106.66
2023-01-04T22:48:52.259Z,100120.44
2023-01-04T22:51:19.954Z,100109.94
2023-01-04T22:53:47.917Z,100118.75
2023-01-04T22:56:19.382Z,100118.47
2023-01-04T22:58:52.472Z,100125.63
2023-01-04T23:01:20.786Z,100129.00
2023-01-04T23:03:47.713Z,100119.47
2023-01-04T23:06:14.278Z,100129.94
2023-01-04T23:08:41.024Z,100120.31
2023-01-04T23:11:09.027Z,100132.53
2023-01-04T23:13:35.704Z,100107.19
2023-01-04T23:16:06.776Z,100118.47
2023-01-04T23:18:34.652Z,100125.53
2023-01-04T23:21:01.791Z,100118.53
2023-01-04T23:23:28.781Z,100132.53
2023-01-04T23:25:55.556Z,100134.09
2023-01-04T23:28:22.403Z,100136.00
2023-01-04T23:30:49.539Z,100123.75
2023-01-04T23:33:16.064Z,100148.97
2023-01-04T23:35:43.170Z,100155.66
2023-01-04T23:38:09.645Z,100159.06
2023-01-04T23:40:36.107Z,100166.13
2023-01-04T23:43:02.552Z,100170.47
2023-01-04T23:45:29.053Z,100167.69
2023-01-04T23:47:55.634Z,100186.00
2023-01-04T23:50:22.234Z,100191.13
2023-01-04T23:52:48.875Z,100182.75
2023-01-04T23:55:15.376Z,100201.59
2023-01-04T23:57:41.866Z,100203.22
